Latest Weather Observations for Trepell

IDQ60801

Issued at 3:02 pm EST Saturday 31 January 2015 (issued every 30 minutes, with the page automatically refreshed every 10 minutes)

About weather observations | Map of weather stations | Latest weather observations for QLD | Other Formats
Station Details ID: 037036 Name: TREPELL AIRPORT Lat: -21.84 Lon: 140.89 Height: 266.2 m
Data from the previous 72 hours. | See also: Recent months at Trepell
Date/Time
EST
Temp
°C
App
Temp
°C
Dew
Point
Rel
Hum
%
Delta-T
°C
Wind Press
QNH
hPa
Press
MSL
hPa
Rain
since 9 am
mm
Dir
 
Spd
km/h
Gust
km/h
Spd
kts
Gust
kts
31/03:00pm 39.4 34.9 7.0 14 18.5 SW 20 33 11 18 1005.1 1003.0 0.0
31/02:30pm 39.2 34.9 6.8 14 18.4 S 19 33 10 18 1005.5 1003.4 0.0
31/02:00pm 38.5 35.2 6.3 14 18.1 SE 13 30 7 16 1005.7 1003.6 0.0
31/01:30pm 38.5 34.3 8.2 16 17.5 SSW 20 35 11 19 1006.1 1004.0 0.0
31/01:00pm 37.7 33.6 8.5 17 16.9 S 20 32 11 17 1006.5 1004.4 0.0
31/12:30pm 37.4 34.7 9.1 18 16.5 SE 13 24 7 13 1006.9 1004.8 0.0
31/12:00pm 36.3 33.2 9.0 19 15.8 S 15 22 8 12 1007.3 1005.2 0.0
31/11:30am 36.6 33.4 8.4 18 16.2 S 15 26 8 14 1007.7 1005.6 0.0
31/11:00am 36.1 32.6 8.8 19 15.8 S 17 28 9 15 1007.9 1005.8 0.0
31/10:30am 35.0 30.5 7.1 18 15.6 SSE 20 28 11 15 1008.3 1006.2 0.0
31/10:00am 34.3 29.0 6.6 18 15.3 SSE 24 32 13 17 1008.4 1006.3 0.0
31/09:30am 33.4 27.9 5.9 18 15.0 SSE 24 32 13 17 1008.4 1006.3 0.0
31/09:00am 32.1 25.7 3.1 16 15.0 SSE 26 32 14 17 1008.4 1006.3 0.0
31/08:30am 31.4 24.9 2.6 16 14.7 SSE 26 35 14 19 1008.2 1006.1 0.0
31/08:00am 28.8 25.3 3.6 20 12.9 S 11 17 6 9 1008.4 1006.3 0.0
31/07:30am 27.5 24.1 3.9 22 12.0 SSW 11 15 6 8 1008.3 1006.2 0.0
31/07:00am 25.8 21.6 3.7 24 11.1 SSW 15 20 8 11 1007.8 1005.7 0.0
31/06:30am 24.5 20.4 4.3 27 10.2 SSW 15 19 8 10 1007.5 1005.4 0.0
31/06:00am 24.5 20.8 4.3 27 10.2 SSW 13 15 7 8 1007.1 1005.0 0.0
31/05:30am 25.2 21.5 4.3 26 10.6 SSW 13 15 7 8 1007.0 1004.9 0.0
31/05:00am 25.7 22.1 4.8 26 10.7 SSW 13 17 7 9 1006.7 1004.6 0.0
31/04:30am 25.3 22.5 5.0 27 10.4 SSW 9 11 5 6 1006.5 1004.4 0.0
31/04:00am 26.2 23.3 4.6 25 11.1 SW 9 11 5 6 1006.6 1004.5 0.0
31/03:30am 26.8 23.5 4.6 24 11.4 SSW 11 13 6 7 1006.4 1004.3 0.0
31/03:00am 27.8 24.5 4.8 23 11.9 S 11 13 6 7 1006.3 1004.2 0.0
31/02:30am 27.9 25.6 4.9 23 11.9 SW 6 7 3 4 1006.3 1004.2 0.0
31/02:00am 28.0 24.8 5.0 23 12.0 SSW 11 15 6 8 1006.0 1003.9 0.0
31/01:30am 28.3 25.1 5.2 23 12.1 SW 11 13 6 7 1006.3 1004.2 0.0
31/01:00am 29.3 26.2 5.4 22 12.7 SW 11 15 6 8 1006.5 1004.4 0.0
31/12:30am 30.1 27.4 5.4 21 13.1 SSW 9 11 5 6 1006.7 1004.6 0.0
31/12:00am 30.9 27.9 6.0 21 13.4 SSE 11 13 6 7 1006.8 1004.7 0.0
 
Date/Time
EST
Temp
°C
App
Temp
°C
Dew
Point
Rel
Hum
%
Delta-T
°C
Wind Press
QNH
hPa
Press
MSL
hPa
Rain
since 9 am
mm
Dir
 
Spd
km/h
Gust
km/h
Spd
kts
Gust
kts
30/11:30pm 32.6 29.0 5.2 18 14.7 SE 13 17 7 9 1006.8 1004.7 0.0
30/11:00pm 32.4 30.1 7.3 21 13.9 S 9 11 5 6 1006.6 1004.5 0.0
30/10:30pm 32.1 29.5 7.7 22 13.6 SSW 11 17 6 9 1006.3 1004.2 0.0
30/10:00pm 32.3 29.9 7.2 21 13.9 S 9 13 5 7 1005.7 1003.6 0.0
30/09:30pm 33.1 30.2 6.4 19 14.7 S 11 13 6 7 1005.4 1003.3 0.0
30/09:00pm 33.8 31.0 7.0 19 14.9 S 11 17 6 9 1005.3 1003.2 0.0
30/08:30pm 34.7 31.5 6.9 18 15.5 SSW 13 17 7 9 1004.9 1002.8 0.0
30/08:00pm 35.7 31.8 6.9 17 16.2 SSW 17 20 9 11 1004.8 1002.7 0.0
30/07:30pm 36.0 32.1 7.1 17 16.2 SSW 17 24 9 13 1004.6 1002.4 0.0
30/07:00pm 36.7 32.9 7.7 17 16.6 SSW 17 24 9 13 1004.3 1002.1 0.0
30/06:30pm 37.1 32.8 7.1 16 17.0 SSW 19 26 10 14 1004.0 1001.9 0.0
30/06:00pm 37.6 34.0 6.6 15 17.5 SW 15 22 8 12 1003.7 1001.6 0.0
30/05:30pm 37.9 34.1 5.8 14 17.8 SW 15 24 8 13 1003.5 1001.4 0.0
30/05:00pm 38.5 34.8 6.3 14 18.1 SSW 15 24 8 13 1003.5 1001.4 0.0
30/04:30pm 38.9 35.3 6.6 14 18.3 S 15 24 8 13 1003.6 1001.5 0.0
30/04:00pm 38.6 34.9 6.3 14 18.2 SW 15 24 8 13 1003.8 1001.7 0.0
30/03:30pm 38.0 34.2 5.9 14 17.9 SW 15 28 8 15 1004.2 1002.0 0.0
30/03:00pm 37.9 33.5 4.7 13 18.2 SSW 17 30 9 16 1004.5 1002.3 0.0
30/02:30pm 38.0 33.6 4.8 13 18.2 WSW 17 33 9 18 1004.7 1002.5 0.0
30/02:00pm 37.3 33.0 5.3 14 17.7 SW 17 30 9 16 1005.2 1003.1 0.0
30/01:30pm 36.3 32.6 6.5 16 16.6 SSE 15 24 8 13 1005.6 1003.5 0.0
30/01:00pm 36.5 33.1 9.2 19 15.9 SSE 17 24 9 13 1006.0 1003.9 0.0
30/12:30pm 36.2 32.5 8.1 18 16.0 SW 17 24 9 13 1006.4 1004.3 0.0
30/12:00pm 37.0 34.6 8.8 18 16.4 NNW 11 20 6 11 1006.8 1004.7 0.0
30/11:30am 35.9 34.3 10.2 21 15.1 SE 9 33 5 18 1007.1 1005.0 0.0
30/11:00am 35.8 34.0 10.8 22 14.9 ESE 11 22 6 12 1007.2 1005.1 0.0
30/10:30am 34.6 33.6 13.4 28 13.0 ENE 11 20 6 11 1007.3 1005.2 0.0
30/10:00am 33.9 32.3 13.9 30 12.4 ENE 15 24 8 13 1007.3 1005.2 0.0
30/09:30am 32.8 31.4 13.4 30 11.8 ENE 13 19 7 10 1007.4 1005.3 0.0
30/09:00am 31.6 28.8 11.4 29 11.9 E 17 22 9 12 1007.4 1005.3 0.0
30/08:30am 31.2 28.2 10.5 28 12.0 E 17 22 9 12 1007.3 1005.2 0.0
30/08:00am 29.7 26.4 8.2 26 12.0 SE 15 20 8 11 1007.2 1005.1 0.0
30/07:30am 27.3 24.4 6.7 27 11.0 SSE 11 15 6 8 1007.0 1004.9 0.0
30/07:00am 24.7 22.2 6.4 31 9.6 SW 9 11 5 6 1006.8 1004.7 0.0
30/06:30am 23.1 20.5 6.0 33 8.8 SW 9 11 5 6 1006.4 1004.3 0.0
30/06:00am 23.4 20.7 5.8 32 9.1 W 9 9 5 5 1006.0 1003.9 0.0
30/05:30am 23.7 21.0 5.6 31 9.3 SSW 9 11 5 6 1005.6 1003.5 0.0
30/05:00am 23.8 20.7 5.7 31 9.3 SSW 11 11 6 6 1005.5 1003.4 0.0
30/04:30am 23.9 21.2 5.8 31 9.3 WSW 9 11 5 6 1005.6 1003.5 0.0
30/04:00am 24.1 21.4 5.5 30 9.6 WSW 9 9 5 5 1005.5 1003.4 0.0
30/03:30am 24.4 21.6 5.2 29 9.8 S 9 11 5 6 1005.4 1003.3 0.0
30/03:00am 24.6 21.5 5.4 29 9.9 SSW 11 13 6 7 1005.3 1003.2 0.0
30/02:30am 25.0 22.2 5.2 28 10.2 SSW 9 11 5 6 1005.5 1003.4 0.0
30/02:00am 25.5 22.7 5.1 27 10.5 SSW 9 11 5 6 1005.6 1003.5 0.0
30/01:30am 26.0 22.8 5.0 26 10.8 SSW 11 13 6 7 1005.8 1003.7 0.0
30/01:00am 27.4 23.9 5.6 25 11.5 S 13 17 7 9 1005.9 1003.8 0.0
30/12:30am 26.8 24.0 5.1 25 11.2 S 9 11 5 6 1006.1 1004.0 0.0
30/12:00am 27.9 24.8 5.5 24 11.8 S 11 13 6 7 1006.3 1004.2 0.0
 
Date/Time
EST
Temp
°C
App
Temp
°C
Dew
Point
Rel
Hum
%
Delta-T
°C
Wind Press
QNH
hPa
Press
MSL
hPa
Rain
since 9 am
mm
Dir
 
Spd
km/h
Gust
km/h
Spd
kts
Gust
kts
29/11:30pm 28.6 25.5 5.5 23 12.2 S 11 13 6 7 1006.5 1004.4 0.0
29/11:00pm 28.6 25.5 5.5 23 12.2 S 11 13 6 7 1006.5 1004.4 0.0
29/10:30pm 29.1 25.9 5.2 22 12.6 SSW 11 15 6 8 1006.4 1004.3 0.0
29/10:00pm 30.1 27.0 5.4 21 13.1 SSW 11 15 6 8 1006.2 1004.1 0.0
29/09:30pm 31.0 27.5 5.4 20 13.6 SSE 13 15 7 8 1005.9 1003.8 0.0
29/09:00pm 31.7 28.1 6.7 21 13.7 SSE 15 19 8 10 1005.7 1003.6 0.0
29/08:30pm 32.6 28.5 6.0 19 14.4 SSE 17 19 9 10 1005.4 1003.3 0.0
29/08:00pm 33.5 29.9 6.7 19 14.8 SSE 15 17 8 9 1005.1 1003.0 0.0
29/07:30pm 34.6 29.7 5.1 16 16.0 SSE 20 26 11 14 1004.7 1002.5 0.0
29/07:00pm 35.7 30.8 5.1 15 16.7 SSE 20 24 11 13 1004.4 1002.2 0.0
29/06:30pm 36.5 31.7 4.7 14 17.3 S 19 28 10 15 1004.0 1001.9 0.0
29/06:00pm 37.1 32.6 4.1 13 17.9 SSE 17 24 9 13 1003.7 1001.6 0.0
29/05:30pm 37.1 33.0 4.1 13 17.8 SSE 15 22 8 12 1003.5 1001.4 0.0
29/05:00pm 37.8 34.2 6.7 15 17.6 SE 15 26 8 14 1003.4 1001.3 0.0
29/04:30pm 35.8 32.4 6.1 16 16.4 SSE 13 19 7 10 1003.6 1001.5 0.0
29/04:00pm 35.8 32.1 6.1 16 16.5 SSE 15 20 8 11 1003.8 1001.7 0.0
29/03:30pm 37.0 32.8 4.0 13 17.8 SE 15 30 8 16 1003.8 1001.7 0.0
29/03:00pm 37.0 32.1 5.1 14 17.5 SSE 20 32 11 17 1004.0 1001.9 0.0
29/02:30pm 36.9 32.5 5.0 14 17.4 SE 17 28 9 15 1004.4 1002.2 0.0
29/02:00pm 37.5 32.9 5.5 14 17.7 S 19 28 10 15 1004.7 1002.5 0.0
29/01:30pm 36.3 33.2 5.5 15 16.9 ESE 11 20 6 11 1005.1 1003.0 0.0
29/01:00pm 36.0 32.3 8.0 18 16.0 SSW 17 28 9 15 1005.5 1003.4 0.0
29/12:30pm 35.7 31.8 8.5 19 15.6 SSE 19 28 10 15 1005.8 1003.7 0.0
29/12:00pm 34.7 31.5 8.4 20 15.0 SE 15 24 8 13 1006.0 1003.9 0.0
29/11:30am 33.9 31.2 10.5 24 13.7 SE 15 28 8 15 1006.4 1004.3 0.0
29/11:00am 33.3 30.7 10.6 25 13.3 ESE 15 26 8 14 1006.9 1004.8 0.0
29/10:30am 31.2 27.7 8.8 25 12.6 SE 17 24 9 13 1007.1 1005.0 0.0
29/10:00am 29.6 26.4 5.0 21 13.0 S 11 19 6 10 1007.3 1005.2 0.0
29/09:30am 28.4 24.6 4.0 21 12.5 S 13 19 7 10 1007.4 1005.3 0.0
29/09:00am 26.9 23.0 3.4 22 11.8 S 13 19 7 10 1007.0 1004.9 0.0
29/08:30am 25.8 20.7 3.1 23 11.3 SSW 19 24 10 13 1006.9 1004.8 0.0
29/08:00am 24.6 19.4 2.7 24 10.7 SSW 19 24 10 13 1006.6 1004.5 0.0
29/07:30am 23.4 18.2 2.3 25 10.1 SW 19 24 10 13 1006.5 1004.4 0.0
29/07:00am 21.9 17.3 1.5 26 9.6 SW 15 17 8 9 1006.3 1004.2 0.0
29/06:30am 21.1 16.5 1.4 27 9.2 WSW 15 17 8 9 1006.0 1003.9 0.0
29/06:00am 21.2 16.9 1.0 26 9.4 WSW 13 17 7 9 1005.6 1003.5 0.0
29/05:30am 21.5 16.8 0.7 25 9.6 WSW 15 17 8 9 1005.5 1003.4 0.0
29/05:00am 21.7 17.0 0.8 25 9.7 WSW 15 19 8 10 1005.3 1003.2 0.0
29/04:30am 21.9 17.1 0.4 24 9.9 SW 15 17 8 9 1005.1 1003.0 0.0
29/04:00am 22.6 17.8 0.4 23 10.3 SW 15 17 8 9 1005.1 1003.0 0.0
29/03:30am 23.1 17.9 0.2 22 10.6 SW 17 19 9 10 1005.1 1003.0 0.0
29/03:00am 23.6 18.3 -0.6 20 11.1 SW 17 19 9 10 1005.0 1002.9 0.0
29/02:30am 23.9 18.6 -0.4 20 11.1 SW 17 22 9 12 1005.2 1003.1 0.0
29/02:00am 24.3 19.0 -0.8 19 11.5 SW 17 20 9 11 1005.6 1003.5 0.0
29/01:30am 24.4 19.4 -1.4 18 11.7 SW 15 20 8 11 1005.8 1003.7 0.0
29/01:00am 24.8 19.7 -1.9 17 12.0 SW 15 19 8 10 1006.0 1003.9 0.0
29/12:30am 25.2 20.1 -1.6 17 12.1 SSW 15 19 8 10 1006.1 1004.0 0.0
29/12:00am 25.4 20.4 -1.4 17 12.3 SSW 15 19 8 10 1006.3 1004.2 0.0
 
Date/Time
EST
Temp
°C
App
Temp
°C
Dew
Point
Rel
Hum
%
Delta-T
°C
Wind Press
QNH
hPa
Press
MSL
hPa
Rain
since 9 am
mm
Dir
 
Spd
km/h
Gust
km/h
Spd
kts
Gust
kts
28/11:30pm 25.8 20.7 -1.9 16 12.5 SSW 15 17 8 9 1006.4 1004.3 0.0
28/11:00pm 26.0 20.9 -1.7 16 12.7 SSW 15 19 8 10 1006.4 1004.3 0.0
28/10:30pm 26.5 21.9 -1.3 16 12.8 SSW 13 15 7 8 1006.3 1004.2 0.0
28/10:00pm 27.5 22.0 -2.3 14 13.6 SSW 17 20 9 11 1006.0 1003.9 0.0
28/09:30pm 28.0 22.9 -2.0 14 13.8 SSW 15 19 8 10 1006.0 1003.9 0.0
28/09:00pm 28.8 23.7 -2.3 13 14.4 SSW 15 19 8 10 1005.7 1003.6 0.0
28/08:30pm 29.7 24.5 -2.7 12 14.9 SSW 15 20 8 11 1005.4 1003.3 0.0
28/08:00pm 30.9 24.7 -3.0 11 15.7 SSW 20 24 11 13 1005.1 1003.0 0.0
28/07:30pm 31.8 24.6 -2.3 11 16.1 SSW 26 33 14 18 1004.5 1002.3 0.0
28/07:00pm 32.8 25.5 -2.8 10 16.8 SSW 26 39 14 21 1004.0 1001.9 0.0
28/06:30pm 33.6 26.4 -2.2 10 17.1 SSW 26 35 14 19 1003.8 1001.7 0.0
28/06:00pm 34.0 26.4 -1.9 10 17.3 SSW 28 41 15 22 1003.5 1001.4 0.0
28/05:30pm 34.6 27.1 -1.4 10 17.5 SW 28 37 15 20 1003.2 1001.1 0.0
28/05:11pm 35.0 27.5 -1.1 10 17.7 SSW 28 48 15 26 1002.9 1000.8 0.0
28/05:00pm 35.2 28.1 -1.0 10 17.9 SSW 26 43 14 23 1003.0 1000.9 0.0
28/04:30pm 35.1 28.0 -1.1 10 17.8 SW 26 37 14 20 1002.8 1000.7 0.0
28/04:00pm 34.8 27.7 -1.3 10 17.7 SSW 26 35 14 19 1003.0 1000.9 0.0
28/03:30pm 34.3 26.8 -1.7 10 17.4 SSW 28 43 15 23 1003.4 1001.3 0.0

Other Formats:

Comma delimited format used in spreadsheet applications
http://www.bom.gov.au/fwo/IDQ60801/IDQ60801.94338.axf

JavaScript Object Notation format (JSON) in row-major order
http://www.bom.gov.au/fwo/IDQ60801/IDQ60801.94338.json